createdAt,value
2022-08-10T00:00:24.260Z,99375.47
2022-08-10T00:01:29.236Z,99380.13
2022-08-10T00:02:32.785Z,99373.34
2022-08-10T00:03:37.230Z,99371.69
2022-08-10T00:04:40.437Z,99376.09
2022-08-10T00:05:52.558Z,99373.69
2022-08-10T00:06:57.461Z,99373.97
2022-08-10T00:08:00.592Z,99375.03
2022-08-10T00:09:05.472Z,99377.91
2022-08-10T00:10:09.402Z,99376.22
2022-08-10T00:11:15.321Z,99377.16
2022-08-10T00:12:20.394Z,99377.28
2022-08-10T00:13:27.420Z,99373.81
2022-08-10T00:14:30.623Z,99371.22
2022-08-10T00:15:51.983Z,99378.09
2022-08-10T00:16:57.610Z,99366.94
2022-08-10T00:18:02.240Z,99377.50
2022-08-10T00:19:05.404Z,99375.72
2022-08-10T00:20:10.681Z,99375.84
2022-08-10T00:21:15.601Z,99381.06
2022-08-10T00:22:20.024Z,99374.06
2022-08-10T00:23:23.356Z,99375.97
2022-08-10T00:24:27.621Z,99375.25
2022-08-10T00:25:30.813Z,99385.13
2022-08-10T00:28:01.389Z,99374.06
2022-08-10T00:28:03.281Z,99376.00
2022-08-10T00:29:09.741Z,99375.13
2022-08-10T00:30:15.257Z,99378.00
2022-08-10T00:31:19.530Z,99376.34
2022-08-10T00:32:22.891Z,99377.28
2022-08-10T00:33:27.182Z,99374.66
2022-08-10T00:34:31.054Z,99377.28
2022-08-10T00:35:35.308Z,99370.38
2022-08-10T00:36:38.443Z,99380.16
2022-08-10T00:37:42.692Z,99372.44
2022-08-10T00:38:59.482Z,99376.94
2022-08-10T00:40:03.742Z,99377.06
2022-08-10T00:41:06.916Z,99379.06
2022-08-10T00:42:13.050Z,99379.19
2022-08-10T00:43:22.995Z,99382.03
2022-08-10T00:44:30.125Z,99377.88
2022-08-10T00:45:33.322Z,99374.53
2022-08-10T00:46:37.534Z,99378.13
2022-08-10T00:47:43.615Z,99385.25
2022-08-10T00:48:54.542Z,99388.09
2022-08-10T00:50:04.820Z,99376.09
2022-08-10T00:51:09.090Z,99385.72
2022-08-10T00:52:13.957Z,99383.22
2022-08-10T00:53:18.355Z,99379.91
2022-08-10T00:54:24.536Z,99385.25
2022-08-10T00:55:29.442Z,99381.91
2022-08-10T00:57:14.300Z,99379.41
2022-08-10T00:57:57.473Z,99381.31
2022-08-10T00:59:00.625Z,99376.19
2022-08-10T01:00:08.283Z,99375.38
2022-08-10T01:02:08.566Z,99377.16
2022-08-10T01:02:36.332Z,99379.88
2022-08-10T01:04:36.207Z,99372.88
2022-08-10T01:05:06.312Z,99373.84
2022-08-10T01:06:13.528Z,99373.00
2022-08-10T01:07:30.762Z,99368.59
2022-08-10T01:08:38.094Z,99368.69
2022-08-10T01:09:55.661Z,99367.78
2022-08-10T01:11:06.135Z,99364.34
2022-08-10T01:12:40.435Z,99376.53
2022-08-10T01:13:51.440Z,99374.78
2022-08-10T01:15:02.402Z,99371.31
2022-08-10T01:16:14.150Z,99369.78
2022-08-10T01:17:20.904Z,99367.28
2022-08-10T01:18:37.977Z,99370.00
2022-08-10T01:19:52.329Z,99367.50
2022-08-10T01:21:14.423Z,99369.44
2022-08-10T01:23:03.832Z,99374.75
2022-08-10T01:24:32.221Z,99372.47
2022-08-10T01:27:05.718Z,99378.91
2022-08-10T01:28:19.959Z,99366.88
2022-08-10T01:29:51.597Z,99372.00
2022-08-10T01:30:56.660Z,99379.25
2022-08-10T01:32:05.098Z,99367.84
2022-08-10T01:33:12.955Z,99368.56
2022-08-10T01:34:22.908Z,99365.94
2022-08-10T01:35:34.989Z,99373.91
2022-08-10T01:36:44.381Z,99373.06
2022-08-10T01:38:00.159Z,99365.22
2022-08-10T01:39:04.899Z,99364.41
2022-08-10T01:40:14.012Z,99365.94
2022-08-10T01:41:24.502Z,99360.72
2022-08-10T01:42:31.378Z,99363.31
2022-08-10T01:43:38.227Z,99367.63
2022-08-10T01:44:45.751Z,99365.84
2022-08-10T01:45:57.252Z,99361.44
2022-08-10T01:47:22.237Z,99362.28
2022-08-10T01:48:31.737Z,99375.34
2022-08-10T01:49:35.973Z,99365.00
2022-08-10T01:50:59.615Z,99369.28
2022-08-10T01:52:04.328Z,99366.66
2022-08-10T01:53:11.363Z,99360.63
2022-08-10T01:54:17.642Z,99365.84
2022-08-10T01:55:21.959Z,99363.22
2022-08-10T01:56:27.874Z,99357.03
2022-08-10T01:57:32.364Z,99356.09
2022-08-10T01:58:37.570Z,99355.38
2022-08-10T01:59:42.626Z,99359.66
2022-08-10T02:01:01.901Z,99363.94
2022-08-10T02:02:09.182Z,99359.66
2022-08-10T02:03:14.647Z,99364.06
2022-08-10T02:04:19.140Z,99363.09
2022-08-10T02:05:25.517Z,99357.03
2022-08-10T02:06:30.729Z,99362.28
2022-08-10T02:07:37.991Z,99358.84
2022-08-10T02:08:42.779Z,99364.06
2022-08-10T02:09:51.137Z,99357.16
2022-08-10T02:10:55.238Z,99365.72
2022-08-10T02:12:06.965Z,99364.06
2022-08-10T02:13:12.298Z,99371.91
2022-08-10T02:14:16.937Z,99362.28
2022-08-10T02:15:22.130Z,99365.00
2022-08-10T02:16:27.829Z,99364.16
2022-08-10T02:18:00.781Z,99358.34
2022-08-10T02:19:01.708Z,99362.25
2022-08-10T02:20:08.303Z,99362.47
2022-08-10T02:21:13.458Z,99365.22
2022-08-10T02:22:36.531Z,99368.78
2022-08-10T02:23:42.070Z,99371.59
2022-08-10T02:24:45.909Z,99366.50
2022-08-10T02:25:50.660Z,99363.97
2022-08-10T02:26:56.555Z,99367.56
2022-08-10T02:28:05.378Z,99371.81
2022-08-10T02:29:09.392Z,99374.69
2022-08-10T02:30:14.439Z,99375.50
2022-08-10T02:31:22.307Z,99373.94
2022-08-10T02:32:37.877Z,99379.28
2022-08-10T02:33:56.411Z,99375.00
2022-08-10T02:35:02.146Z,99382.25
2022-08-10T02:36:08.730Z,99378.66
2022-08-10T02:37:13.484Z,99375.34
2022-08-10T02:38:21.798Z,99382.47
2022-08-10T02:39:25.608Z,99391.25
2022-08-10T02:45:01.378Z,99379.38
2022-08-10T02:45:02.893Z,99386.13
2022-08-10T02:45:18.086Z,99382.31
2022-08-10T02:45:20.242Z,99382.19
2022-08-10T02:46:24.059Z,99379.84
2022-08-10T02:47:51.567Z,99385.97
2022-08-10T02:49:02.470Z,99388.59
2022-08-10T02:50:11.708Z,99382.53
2022-08-10T02:51:20.280Z,99385.97
2022-08-10T02:52:46.248Z,99389.66
2022-08-10T02:53:56.155Z,99385.38
2022-08-10T02:55:05.960Z,99385.38
2022-08-10T02:56:26.459Z,99394.25
2022-08-10T02:57:36.230Z,99386.56
2022-08-10T02:59:06.730Z,99393.63
2022-08-10T03:00:10.824Z,99390.19
2022-08-10T03:01:20.232Z,99389.38
2022-08-10T03:02:27.066Z,99389.50
2022-08-10T03:03:39.448Z,99392.94
2022-08-10T03:04:56.161Z,99392.09
2022-08-10T03:06:06.826Z,99390.53
2022-08-10T03:07:14.419Z,99396.69
2022-08-10T03:08:21.330Z,99399.44
2022-08-10T03:09:26.409Z,99390.94
2022-08-10T03:10:32.379Z,99397.25
2022-08-10T03:12:37.935Z,99395.59
2022-08-10T03:13:02.137Z,99390.56
2022-08-10T03:14:07.499Z,99394.97
2022-08-10T03:15:16.004Z,99393.38
2022-08-10T03:16:20.399Z,99389.34
2022-08-10T03:17:25.304Z,99400.72
2022-08-10T03:18:28.949Z,99401.66
2022-08-10T03:20:35.674Z,99400.00
2022-08-10T03:20:59.709Z,99399.16
2022-08-10T03:22:04.719Z,99403.56
2022-08-10T03:23:12.052Z,99401.91
2022-08-10T03:24:30.112Z,99405.41
2022-08-10T03:25:36.870Z,99406.38
2022-08-10T03:26:41.353Z,99407.13
2022-08-10T03:27:45.248Z,99404.59
2022-08-10T03:28:50.214Z,99410.63
2022-08-10T03:30:30.001Z,99413.16
2022-08-10T03:31:18.681Z,99417.44
2022-08-10T03:32:23.497Z,99415.78
2022-08-10T03:33:28.935Z,99414.00
2022-08-10T03:34:35.538Z,99410.56
2022-08-10T03:35:38.856Z,99409.81
2022-08-10T03:36:45.071Z,99408.97
2022-08-10T03:37:49.617Z,99413.38
2022-08-10T03:39:02.458Z,99415.03
2022-08-10T03:40:08.170Z,99409.81
2022-08-10T03:41:15.906Z,99410.75
2022-08-10T03:42:21.238Z,99410.75
2022-08-10T03:43:26.638Z,99411.59
2022-08-10T03:44:34.378Z,99408.91
2022-08-10T03:45:54.357Z,99403.56
2022-08-10T03:47:01.648Z,99416.59
2022-08-10T03:48:05.966Z,99414.00
2022-08-10T03:49:11.435Z,99416.72
2022-08-10T03:50:45.170Z,99416.81
2022-08-10T03:51:41.618Z,99417.13
2022-08-10T03:52:45.518Z,99411.31
2022-08-10T03:54:04.509Z,99415.78
2022-08-10T03:55:09.931Z,99415.78
2022-08-10T03:56:29.867Z,99421.75
2022-08-10T03:57:35.656Z,99419.84
2022-08-10T03:58:52.744Z,99427.47
2022-08-10T03:59:57.077Z,99429.84
2022-08-10T04:01:00.716Z,99422.41
2022-08-10T04:02:43.350Z,99415.22
2022-08-10T04:03:30.860Z,99423.53
2022-08-10T04:04:35.380Z,99426.66
2022-08-10T04:05:40.275Z,99432.41
2022-08-10T04:06:44.816Z,99426.88
2022-08-10T04:07:48.156Z,99430.09
2022-08-10T04:08:52.548Z,99422.88
2022-08-10T04:09:56.535Z,99425.97
2022-08-10T04:11:03.236Z,99429.91
2022-08-10T04:12:07.417Z,99430.31
2022-08-10T04:13:12.145Z,99419.53
2022-08-10T04:14:38.745Z,99426.91
2022-08-10T04:15:39.558Z,99431.47
2022-08-10T04:16:42.795Z,99424.00
2022-08-10T04:18:01.235Z,99430.34
2022-08-10T04:19:08.957Z,99431.31
2022-08-10T04:20:18.956Z,99432.28
2022-08-10T04:21:27.806Z,99430.75
2022-08-10T04:22:32.416Z,99425.66
2022-08-10T04:23:38.576Z,99429.47
2022-08-10T04:24:42.898Z,99432.34
2022-08-10T04:25:47.517Z,99430.91
2022-08-10T04:26:51.371Z,99423.53
2022-08-10T04:27:56.575Z,99425.78
2022-08-10T04:28:59.738Z,99424.75
2022-08-10T04:30:04.316Z,99424.47
2022-08-10T04:31:08.896Z,99421.88
2022-08-10T04:32:14.446Z,99418.19
2022-08-10T04:33:19.658Z,99426.66
2022-08-10T04:34:24.499Z,99425.44
2022-08-10T04:35:29.107Z,99422.59
2022-08-10T04:36:35.236Z,99425.84
2022-08-10T04:37:46.781Z,99423.78
2022-08-10T04:38:53.770Z,99425.91
2022-08-10T04:39:57.238Z,99432.47
2022-08-10T04:41:01.866Z,99435.56
2022-08-10T04:42:05.779Z,99435.19
2022-08-10T04:43:13.132Z,99431.38
2022-08-10T04:44:16.954Z,99433.63
2022-08-10T04:45:21.425Z,99429.69
2022-08-10T04:46:56.437Z,99440.38
2022-08-10T04:48:03.353Z,99434.66
2022-08-10T04:49:40.325Z,99438.56
2022-08-10T04:50:31.230Z,99442.47
2022-08-10T04:51:38.197Z,99438.66
2022-08-10T04:52:41.627Z,99438.41
2022-08-10T04:54:05.722Z,99437.91
2022-08-10T04:55:10.048Z,99443.47
2022-08-10T04:56:14.598Z,99437.13
2022-08-10T04:57:17.899Z,99444.38
2022-08-10T04:58:22.348Z,99444.59
2022-08-10T04:59:25.518Z,99446.56
2022-08-10T05:00:30.109Z,99440.72
2022-08-10T05:02:21.108Z,99438.28
2022-08-10T05:02:57.984Z,99442.75
2022-08-10T05:04:35.232Z,99440.47
2022-08-10T05:05:25.652Z,99445.09
2022-08-10T05:06:28.791Z,99443.75
2022-08-10T05:07:37.495Z,99442.38
2022-08-10T05:08:57.319Z,99449.72
2022-08-10T05:10:06.041Z,99442.97
2022-08-10T05:11:10.988Z,99444.97
2022-08-10T05:12:29.682Z,99443.34
2022-08-10T05:13:33.937Z,99445.31
2022-08-10T05:14:37.167Z,99448.38
2022-08-10T05:15:44.227Z,99448.53
2022-08-10T05:16:48.716Z,99450.34
2022-08-10T05:18:08.199Z,99449.56
2022-08-10T05:19:13.260Z,99450.41
2022-08-10T05:20:17.718Z,99455.81
2022-08-10T05:22:03.207Z,99453.34
2022-08-10T05:22:47.661Z,99449.94
2022-08-10T05:23:51.070Z,99452.72
2022-08-10T05:24:55.580Z,99455.47
2022-08-10T05:25:59.026Z,99460.88
2022-08-10T05:27:10.097Z,99456.47
2022-08-10T05:28:14.604Z,99459.22
2022-08-10T05:29:17.804Z,99460.19
2022-08-10T05:30:23.388Z,99454.34
2022-08-10T05:31:27.662Z,99463.22
2022-08-10T05:32:32.377Z,99448.38
2022-08-10T05:33:37.617Z,99452.66
2022-08-10T05:34:41.785Z,99458.44
2022-08-10T05:35:55.263Z,99447.03
2022-08-10T05:37:01.461Z,99447.88
2022-08-10T05:38:11.450Z,99453.44
2022-08-10T05:39:18.788Z,99451.47
2022-08-10T05:40:33.286Z,99435.59
2022-08-10T05:41:38.438Z,99448.00
2022-08-10T05:42:46.347Z,99443.56
2022-08-10T05:43:49.737Z,99449.31
2022-08-10T05:44:54.041Z,99448.66
2022-08-10T05:46:19.014Z,99447.78
2022-08-10T05:47:22.267Z,99443.06
2022-08-10T05:48:55.363Z,99451.25
2022-08-10T05:49:50.547Z,99452.44
2022-08-10T05:50:56.358Z,99453.47
2022-08-10T05:52:00.797Z,99452.13
2022-08-10T05:53:58.954Z,99447.94
2022-08-10T05:54:29.638Z,99447.41
2022-08-10T05:55:33.317Z,99451.13
2022-08-10T05:56:54.327Z,99446.88
2022-08-10T05:58:02.603Z,99448.09
2022-08-10T05:59:09.456Z,99451.28
2022-08-10T06:00:36.660Z,99452.81
2022-08-10T06:01:44.688Z,99454.28
2022-08-10T06:03:10.596Z,99455.47
2022-08-10T06:04:29.968Z,99455.38
2022-08-10T06:05:36.938Z,99451.09
2022-08-10T06:06:41.756Z,99451.09
2022-08-10T06:07:50.541Z,99451.72
2022-08-10T06:08:56.378Z,99450.72
2022-08-10T06:10:02.916Z,99444.91
2022-08-10T06:12:28.533Z,99459.19
2022-08-10T06:12:54.423Z,99452.25
2022-08-10T06:14:18.476Z,99465.56
2022-08-10T06:15:52.121Z,99458.97
2022-08-10T06:16:47.096Z,99463.00
2022-08-10T06:17:59.030Z,99458.81
2022-08-10T06:19:05.018Z,99461.97
2022-08-10T06:20:10.819Z,99458.75
2022-08-10T06:21:14.700Z,99465.78
2022-08-10T06:22:19.397Z,99465.88
2022-08-10T06:23:24.304Z,99457.06
2022-08-10T06:24:31.334Z,99464.94
2022-08-10T06:26:59.445Z,99463.34
2022-08-10T06:28:02.784Z,99460.34
2022-08-10T06:29:09.724Z,99464.06
2022-08-10T06:30:20.319Z,99468.84
2022-08-10T06:31:27.367Z,99458.66
2022-08-10T06:32:31.217Z,99467.06
2022-08-10T06:33:39.339Z,99467.94
2022-08-10T06:34:46.419Z,99462.38
2022-08-10T06:35:51.489Z,99476.59
2022-08-10T06:36:57.337Z,99466.13
2022-08-10T06:38:03.198Z,99470.88
2022-08-10T06:39:31.893Z,99467.44
2022-08-10T06:40:36.815Z,99461.84
2022-08-10T06:42:15.244Z,99468.03
2022-08-10T06:43:12.697Z,99465.34
2022-08-10T06:44:18.963Z,99464.31
2022-08-10T06:45:26.938Z,99461.84
2022-08-10T06:46:31.087Z,99467.38
2022-08-10T06:47:40.650Z,99467.97
2022-08-10T06:48:48.433Z,99467.16
2022-08-10T06:50:00.087Z,99456.66
2022-08-10T06:51:06.805Z,99455.19
2022-08-10T06:52:17.724Z,99458.22
2022-08-10T06:53:23.537Z,99456.78
2022-08-10T06:54:28.416Z,99457.41
2022-08-10T06:55:49.764Z,99458.84
2022-08-10T06:57:17.295Z,99461.28
2022-08-10T06:58:26.622Z,99460.78
2022-08-10T06:59:33.715Z,99458.28
2022-08-10T07:00:43.245Z,99459.78
2022-08-10T07:01:50.956Z,99468.13
2022-08-10T07:02:59.250Z,99463.09
2022-08-10T07:04:05.910Z,99458.50
2022-08-10T07:05:13.585Z,99469.81
2022-08-10T07:06:18.164Z,99464.63
2022-08-10T07:07:25.513Z,99465.16
2022-08-10T07:08:33.682Z,99461.38
2022-08-10T07:09:39.505Z,99460.50
2022-08-10T07:10:46.636Z,99457.97
2022-08-10T07:11:51.236Z,99462.44
2022-08-10T07:12:58.569Z,99468.66
2022-08-10T07:14:15.971Z,99470.94
2022-08-10T07:15:23.124Z,99465.25
2022-08-10T07:16:46.956Z,99462.66
2022-08-10T07:17:52.998Z,99466.25
2022-08-10T07:18:57.343Z,99455.25
2022-08-10T07:20:03.242Z,99467.31
2022-08-10T07:21:08.927Z,99462.69
2022-08-10T07:23:22.635Z,99456.16
2022-08-10T07:23:58.395Z,99463.34
2022-08-10T07:25:07.007Z,99461.78
2022-08-10T07:26:13.631Z,99464.75
2022-08-10T07:27:19.081Z,99464.22
2022-08-10T07:28:23.165Z,99463.66
2022-08-10T07:29:53.981Z,99452.06
2022-08-10T07:30:55.525Z,99456.50
2022-08-10T07:31:59.957Z,99454.44
2022-08-10T07:33:06.677Z,99459.88
2022-08-10T07:34:10.738Z,99459.78
2022-08-10T07:35:17.562Z,99455.44
2022-08-10T07:36:22.548Z,99456.03
2022-08-10T07:37:27.897Z,99456.16
2022-08-10T07:38:32.227Z,99457.03
2022-08-10T07:40:02.970Z,99455.19
2022-08-10T07:41:05.688Z,99452.38
2022-08-10T07:42:13.357Z,99448.31
2022-08-10T07:43:19.094Z,99453.47
2022-08-10T07:44:23.233Z,99447.84
2022-08-10T07:45:29.766Z,99449.25
2022-08-10T07:46:34.165Z,99451.81
2022-08-10T07:47:53.116Z,99452.63
2022-08-10T07:49:01.828Z,99454.84
2022-08-10T07:50:21.134Z,99447.69
2022-08-10T07:51:25.450Z,99450.06
2022-08-10T07:52:29.198Z,99455.34
2022-08-10T07:53:35.517Z,99465.00
2022-08-10T07:54:41.696Z,99457.19
2022-08-10T07:56:04.417Z,99460.53
2022-08-10T07:57:24.962Z,99457.78
2022-08-10T07:58:38.536Z,99461.53
2022-08-10T07:59:43.280Z,99460.19
2022-08-10T08:00:48.328Z,99458.53
2022-08-10T08:01:54.252Z,99457.81
2022-08-10T08:03:01.498Z,99462.66
2022-08-10T08:04:11.731Z,99460.63
2022-08-10T08:05:57.226Z,99458.75
2022-08-10T08:06:43.534Z,99459.00
2022-08-10T08:07:47.920Z,99451.47
2022-08-10T08:08:52.406Z,99466.47
2022-08-10T08:09:57.887Z,99456.03
2022-08-10T08:11:06.312Z,99460.28
2022-08-10T08:12:11.988Z,99455.16
2022-08-10T08:13:16.955Z,99451.50
2022-08-10T08:14:22.172Z,99460.03
2022-08-10T08:16:18.745Z,99444.28
2022-08-10T08:16:54.288Z,99457.47
2022-08-10T08:17:59.642Z,99454.34
2022-08-10T08:20:29.318Z,99445.63
2022-08-10T08:24:10.246Z,99449.81
2022-08-10T08:24:10.318Z,99443.50
2022-08-10T08:24:32.992Z,99451.00
2022-08-10T08:25:38.458Z,99445.63
2022-08-10T08:26:42.173Z,99442.81
2022-08-10T08:27:55.988Z,99440.53
2022-08-10T08:28:59.246Z,99433.47
2022-08-10T08:30:10.487Z,99436.41
2022-08-10T08:31:16.006Z,99434.97
2022-08-10T08:32:22.677Z,99439.28
2022-08-10T08:33:41.207Z,99427.09
2022-08-10T08:34:48.342Z,99435.50
2022-08-10T08:35:52.446Z,99429.25
2022-08-10T08:36:59.652Z,99433.19
2022-08-10T08:38:33.028Z,99438.66
2022-08-10T08:39:28.191Z,99434.38
2022-08-10T08:40:34.026Z,99437.03
2022-08-10T08:41:52.926Z,99442.47
2022-08-10T08:43:12.232Z,99442.13
2022-08-10T08:44:22.537Z,99444.44
2022-08-10T08:45:31.937Z,99436.47
2022-08-10T08:46:59.199Z,99443.06
2022-08-10T08:48:14.161Z,99434.97
2022-08-10T08:50:04.711Z,99438.56
2022-08-10T08:52:07.313Z,99438.63
2022-08-10T08:52:49.534Z,99430.22
2022-08-10T08:54:04.437Z,99430.06
2022-08-10T08:55:50.082Z,99429.72
2022-08-10T08:56:49.945Z,99435.84
2022-08-10T08:58:06.478Z,99432.84
2022-08-10T08:59:27.276Z,99437.09
2022-08-10T09:00:37.661Z,99441.88
2022-08-10T09:01:52.035Z,99429.19
2022-08-10T09:03:13.229Z,99431.75
2022-08-10T09:04:31.899Z,99437.50
2022-08-10T09:05:58.385Z,99434.66
2022-08-10T09:08:00.627Z,99430.66
2022-08-10T09:09:05.278Z,99435.53
2022-08-10T09:10:15.538Z,99428.66
2022-08-10T09:11:30.212Z,99432.53
2022-08-10T09:12:43.098Z,99424.59
2022-08-10T09:13:56.797Z,99438.28
2022-08-10T09:15:04.629Z,99435.69
2022-08-10T09:16:18.017Z,99427.72
2022-08-10T09:17:27.474Z,99419.91
2022-08-10T09:18:41.556Z,99442.91
2022-08-10T09:19:49.730Z,99428.75
2022-08-10T09:20:58.787Z,99431.34
2022-08-10T09:22:17.346Z,99431.50
2022-08-10T09:24:01.718Z,99433.16
2022-08-10T09:24:58.207Z,99440.25
2022-08-10T09:26:06.293Z,99429.94
2022-08-10T09:27:18.958Z,99430.16
2022-08-10T09:28:27.057Z,99428.34
2022-08-10T09:29:35.007Z,99430.56
2022-08-10T09:31:20.759Z,99430.16
2022-08-10T09:36:19.686Z,99434.63
2022-08-10T09:36:23.684Z,99437.81
2022-08-10T09:36:28.950Z,99429.97
2022-08-10T09:36:56.373Z,99430.09
2022-08-10T09:38:13.397Z,99427.41
2022-08-10T09:40:56.460Z,99425.53
2022-08-10T09:41:00.028Z,99416.72
2022-08-10T09:42:14.594Z,99427.13
2022-08-10T09:43:36.857Z,99426.75
2022-08-10T09:44:57.913Z,99430.06
2022-08-10T09:46:11.858Z,99429.34
2022-08-10T09:47:58.824Z,99413.22
2022-08-10T09:49:00.173Z,99411.13
2022-08-10T09:50:24.487Z,99411.41
2022-08-10T09:51:48.949Z,99409.56
2022-08-10T09:53:06.537Z,99414.59
2022-08-10T09:54:18.396Z,99407.31
2022-08-10T09:56:17.383Z,99408.50
2022-08-10T09:57:44.831Z,99411.72
2022-08-10T09:58:40.238Z,99407.03
2022-08-10T10:00:00.784Z,99399.47
2022-08-10T10:01:57.978Z,99403.91
2022-08-10T10:02:56.785Z,99401.59
2022-08-10T10:04:08.789Z,99403.00
2022-08-10T10:05:32.057Z,99400.84
2022-08-10T10:06:41.110Z,99398.16
2022-08-10T10:07:48.974Z,99396.38
2022-08-10T10:08:58.222Z,99396.59
2022-08-10T10:10:05.236Z,99404.81
2022-08-10T10:11:18.924Z,99403.22
2022-08-10T10:12:28.826Z,99408.38
2022-08-10T10:14:01.441Z,99400.63
2022-08-10T10:15:25.324Z,99402.75
2022-08-10T10:16:44.389Z,99401.66
2022-08-10T10:18:02.412Z,99396.47
2022-08-10T10:19:18.364Z,99395.78
2022-08-10T10:20:27.504Z,99403.41
2022-08-10T10:21:54.008Z,99398.59
2022-08-10T10:23:09.278Z,99385.84
2022-08-10T10:24:22.979Z,99395.53
2022-08-10T10:25:50.381Z,99389.31
2022-08-10T10:26:57.567Z,99381.75
2022-08-10T10:28:14.226Z,99390.59
2022-08-10T10:29:58.599Z,99391.44
2022-08-10T10:31:02.414Z,99394.47
2022-08-10T10:32:14.058Z,99388.28
2022-08-10T10:33:23.707Z,99390.53
2022-08-10T10:34:34.987Z,99394.31
2022-08-10T10:35:39.648Z,99375.50
2022-08-10T10:36:44.479Z,99391.63
2022-08-10T10:38:01.861Z,99387.28
2022-08-10T10:39:08.611Z,99382.91
2022-08-10T10:40:16.480Z,99382.09
2022-08-10T10:41:31.567Z,99371.22
2022-08-10T10:43:04.046Z,99376.50
2022-08-10T10:44:18.034Z,99376.50
2022-08-10T10:45:25.906Z,99383.53
2022-08-10T10:46:49.410Z,99374.78
2022-08-10T10:48:01.350Z,99385.03
2022-08-10T10:49:13.209Z,99382.69
2022-08-10T10:50:20.286Z,99384.59
2022-08-10T10:51:30.315Z,99380.22
2022-08-10T10:52:42.735Z,99372.75
2022-08-10T10:53:50.768Z,99379.41
2022-08-10T10:55:01.939Z,99384.09
2022-08-10T10:56:16.272Z,99377.31
2022-08-10T10:57:59.880Z,99374.25
2022-08-10T10:58:59.585Z,99363.50
2022-08-10T11:00:07.746Z,99379.16
2022-08-10T11:01:18.950Z,99377.16
2022-08-10T11:02:39.106Z,99371.75
2022-08-10T11:04:03.417Z,99370.59
2022-08-10T11:05:16.899Z,99363.56
2022-08-10T11:06:39.807Z,99368.31
2022-08-10T11:07:55.784Z,99371.13
2022-08-10T11:09:07.108Z,99369.47
2022-08-10T11:10:33.222Z,99356.72
2022-08-10T11:12:01.497Z,99356.88
2022-08-10T11:14:25.271Z,99354.91
2022-08-10T11:14:59.234Z,99360.28
2022-08-10T11:16:08.534Z,99366.31
2022-08-10T11:17:17.181Z,99365.13
2022-08-10T11:18:27.367Z,99363.81
2022-08-10T11:20:02.532Z,99365.75
2022-08-10T11:21:05.994Z,99360.03
2022-08-10T11:22:22.200Z,99360.78
2022-08-10T11:23:32.006Z,99362.34
2022-08-10T11:24:50.236Z,99342.31
2022-08-10T11:25:59.609Z,99346.94
2022-08-10T11:27:21.630Z,99357.38
2022-08-10T11:28:34.139Z,99359.91
2022-08-10T11:29:49.979Z,99356.25
2022-08-10T11:30:59.636Z,99365.47
2022-08-10T11:32:21.024Z,99357.72
2022-08-10T11:33:39.343Z,99358.53
2022-08-10T11:35:11.673Z,99362.56
2022-08-10T11:36:23.122Z,99367.84
2022-08-10T11:38:29.714Z,99366.75
2022-08-10T11:39:15.087Z,99366.56
2022-08-10T11:40:22.476Z,99357.75
2022-08-10T11:42:09.452Z,99360.03
2022-08-10T11:43:12.637Z,99355.94
2022-08-10T11:44:27.476Z,99352.00
2022-08-10T11:45:32.495Z,99350.59
2022-08-10T11:46:40.048Z,99351.13
2022-08-10T11:47:48.835Z,99351.38
2022-08-10T11:49:10.386Z,99341.84
2022-08-10T11:50:22.569Z,99352.22
2022-08-10T11:51:29.278Z,99356.38
2022-08-10T11:52:50.594Z,99351.56
2022-08-10T11:54:23.835Z,99345.38
2022-08-10T11:55:31.200Z,99347.84
2022-08-10T11:56:46.785Z,99341.13
2022-08-10T11:57:53.047Z,99351.72
2022-08-10T11:59:17.473Z,99346.03
2022-08-10T12:00:22.701Z,99345.47
2022-08-10T12:01:47.123Z,99350.09
2022-08-10T12:02:54.165Z,99351.16
2022-08-10T12:04:00.326Z,99353.03
2022-08-10T12:05:09.196Z,99355.25
2022-08-10T12:06:21.553Z,99350.13
2022-08-10T12:10:01.816Z,99352.41
2022-08-10T12:10:07.479Z,99353.44
2022-08-10T12:10:40.713Z,99354.53
2022-08-10T12:11:44.668Z,99353.50
2022-08-10T12:12:54.704Z,99350.88
2022-08-10T12:15:34.175Z,99335.56
2022-08-10T12:16:43.298Z,99349.88
2022-08-10T12:17:52.637Z,99332.66
2022-08-10T12:19:04.676Z,99337.41
2022-08-10T12:20:11.995Z,99334.25
2022-08-10T12:21:45.596Z,99328.28
2022-08-10T12:25:18.106Z,99326.16
2022-08-10T12:27:15.514Z,99321.06
2022-08-10T12:28:49.380Z,99314.56
2022-08-10T12:29:57.080Z,99311.22
2022-08-10T12:31:08.448Z,99319.84
2022-08-10T12:32:27.099Z,99310.19
2022-08-10T12:34:01.476Z,99306.34
2022-08-10T12:35:08.558Z,99311.19
2022-08-10T12:36:20.946Z,99309.91
2022-08-10T12:37:31.088Z,99308.50
2022-08-10T12:38:42.416Z,99311.00
2022-08-10T12:40:06.846Z,99306.69
2022-08-10T12:41:25.387Z,99308.94
2022-08-10T12:44:03.688Z,99309.88
2022-08-10T12:44:19.935Z,99301.28
2022-08-10T12:45:28.365Z,99299.28
2022-08-10T12:46:38.476Z,99303.97
2022-08-10T12:48:19.695Z,99298.78
2022-08-10T12:49:29.708Z,99293.91
2022-08-10T12:50:42.638Z,99298.41
2022-08-10T12:51:51.105Z,99292.00
2022-08-10T12:53:12.430Z,99290.78
2022-08-10T12:54:32.108Z,99291.41
2022-08-10T12:55:38.820Z,99279.31
2022-08-10T12:56:47.362Z,99286.94
2022-08-10T12:57:52.845Z,99293.13
2022-08-10T12:59:01.312Z,99287.41
2022-08-10T13:00:07.110Z,99283.63
2022-08-10T13:01:25.013Z,99283.03
2022-08-10T13:02:31.199Z,99281.75
2022-08-10T13:04:22.949Z,99287.59
2022-08-10T13:05:01.917Z,99285.69
2022-08-10T13:06:10.225Z,99279.09
2022-08-10T13:08:25.578Z,99279.25
2022-08-10T13:08:56.356Z,99280.03
2022-08-10T13:10:03.967Z,99279.28
2022-08-10T13:11:19.180Z,99276.59
2022-08-10T13:12:40.448Z,99270.59
2022-08-10T13:13:49.446Z,99264.69
2022-08-10T13:14:55.775Z,99266.31
2022-08-10T13:16:00.488Z,99264.66
2022-08-10T13:17:07.394Z,99267.38
2022-08-10T13:18:18.505Z,99277.09
2022-08-10T13:19:25.414Z,99272.69
2022-08-10T13:20:32.741Z,99281.00
2022-08-10T13:21:39.530Z,99267.13
2022-08-10T13:22:44.727Z,99266.81
2022-08-10T13:24:04.952Z,99258.94
2022-08-10T13:25:10.393Z,99269.59
2022-08-10T13:26:15.497Z,99266.91
2022-08-10T13:27:26.495Z,99260.19
2022-08-10T13:28:39.855Z,99271.66
2022-08-10T13:29:51.446Z,99268.41
2022-08-10T13:30:55.273Z,99267.91
2022-08-10T13:32:04.361Z,99269.03
2022-08-10T13:33:17.138Z,99270.28
2022-08-10T13:34:47.062Z,99268.63
2022-08-10T13:35:50.538Z,99268.25
2022-08-10T13:37:09.430Z,99265.75
2022-08-10T13:38:21.016Z,99260.03
2022-08-10T13:39:26.726Z,99259.34
2022-08-10T13:40:32.876Z,99264.34
2022-08-10T13:41:42.335Z,99264.56
2022-08-10T13:42:58.745Z,99258.00
2022-08-10T13:44:02.063Z,99260.34
2022-08-10T13:45:10.779Z,99261.84
2022-08-10T13:46:22.808Z,99254.84
2022-08-10T13:47:36.129Z,99248.91
2022-08-10T13:48:54.813Z,99244.63
2022-08-10T13:50:04.207Z,99251.16
2022-08-10T13:51:13.077Z,99246.53
2022-08-10T13:52:24.038Z,99251.41
2022-08-10T13:53:31.607Z,99245.63
2022-08-10T13:54:40.327Z,99244.25
2022-08-10T13:55:53.571Z,99250.00
2022-08-10T13:57:01.016Z,99243.97
2022-08-10T13:58:05.885Z,99247.22
2022-08-10T13:59:11.377Z,99247.16
2022-08-10T14:00:33.861Z,99236.25
2022-08-10T14:01:44.739Z,99249.81
2022-08-10T14:02:59.186Z,99237.03
2022-08-10T14:04:06.328Z,99249.03
2022-08-10T14:05:11.591Z,99245.31
2022-08-10T14:06:23.545Z,99244.56
2022-08-10T14:07:36.409Z,99240.44
2022-08-10T14:08:42.707Z,99242.34
2022-08-10T14:09:52.164Z,99228.25